Time;durP1;ratioP1;P1;durP2;ratioP2;P2;SDS_P1;SDS_P2;PMS_P1;PMS_P2;Temp;Humidity;BMP_temperature;BMP_pressure;BME280_temperature;BME280_humidity;BME280_pressure;Samples;Min_cycle;Max_cycle;Signal;HPM_P1;HPM_P2
2021/01/14 00:00:49;;;;;;;91.63;31.15;;;;;;;0.89;65.19;96309.56;5006437;28;20417;-62
2021/01/14 00:03:14;;;;;;;55.88;21.15;;;;;;;-0.24;64.86;96150.66;5005062;28;20068;-62
2021/01/14 00:05:40;;;;;;;38.47;14.95;;;;;;;0.97;63.92;96316.91;5006392;28;20038;-62
2021/01/14 00:08:07;;;;;;;25.73;10.80;;;;;;;-1.49;63.95;95921.94;4988834;28;20025;-62
2021/01/14 00:10:33;;;;;;;22.75;9.95;;;;;;;0.69;64.67;96272.13;5005411;28;20045;-62
2021/01/14 00:12:58;;;;;;;16.20;6.47;;;;;;;0.13;64.71;96165.47;5005036;28;20029;-62
2021/01/14 00:15:24;;;;;;;12.52;5.53;;;;;;;-0.18;64.61;96133.03;5005521;28;20102;-62
2021/01/14 00:17:49;;;;;;;10.32;5.15;;;;;;;0.36;65.05;96245.78;4990987;28;20026;-63
2021/01/14 00:20:19;;;;;;;12.02;5.18;;;;;;;0.99;66.42;96331.00;5005920;28;20041;-63
2021/01/14 00:22:45;;;;;;;9.30;4.68;;;;;;;1.00;64.78;96323.63;5006362;28;20032;-64
2021/01/14 00:25:12;;;;;;;10.32;4.28;;;;;;;1.02;63.06;96319.47;4987826;28;20038;-63
2021/01/14 00:27:38;;;;;;;10.18;4.47;;;;;;;0.82;61.43;96281.22;4988652;28;20061;-62
2021/01/14 00:30:11;;;;;;;8.80;4.38;;;;;;;1.07;62.75;96327.47;5006185;28;20529;-63
2021/01/14 00:32:36;;;;;;;29.35;11.77;;;;;;;1.02;63.85;96330.38;4988422;28;20030;-63
2021/01/14 00:35:02;;;;;;;44.17;16.67;;;;;;;0.91;65.05;96328.31;5006472;28;20253;-62
2021/01/14 00:40:14;;;;;;;40.78;13.88;;;;;;;0.93;62.18;96302.31;5006116;28;20135;-62
2021/01/14 00:42:39;;;;;;;26.73;10.27;;;;;;;0.33;64.06;96239.06;5006011;28;20029;-63
2021/01/14 00:45:06;;;;;;;26.73;11.27;;;;;;;0.92;64.81;96330.72;4988036;28;20935;-62
2021/01/14 00:47:35;;;;;;;30.25;12.02;;;;;;;0.94;64.83;96328.47;5005646;28;20099;-63
2021/01/14 00:50:01;;;;;;;20.55;9.07;;;;;;;-1.70;65.26;95902.78;5006004;28;20077;-62
2021/01/14 00:52:26;;;;;;;15.73;6.28;;;;;;;0.75;61.36;96287.16;4987845;28;20088;-63
2021/01/14 00:54:52;;;;;;;11.60;4.55;;;;;;;0.79;58.48;96288.09;4988189;28;20129;-63
2021/01/14 00:57:17;;;;;;;10.85;4.00;;;;;;;1.05;58.57;96318.81;5005361;28;20029;-63
2021/01/14 00:59:43;;;;;;;13.50;5.55;;;;;;;0.75;59.12;96264.56;4987593;28;20065;-63
2021/01/14 01:02:08;;;;;;;13.50;5.82;;;;;;;0.90;60.37;96278.44;5005503;28;20034;-63
2021/01/14 01:04:34;;;;;;;16.60;7.25;;;;;;;0.13;60.13;96139.03;4987793;28;20068;-63
2021/01/14 01:06:59;;;;;;;17.85;8.30;;;;;;;1.07;60.30;96302.91;4987279;28;20038;-63
2021/01/14 01:09:25;;;;;;;10.07;4.78;;;;;;;0.87;60.33;96264.69;5005556;28;20041;-65
2021/01/14 01:11:50;;;;;;;11.27;5.82;;;;;;;1.07;62.88;96311.09;5005455;28;20064;-62
2021/01/14 01:14:15;;;;;;;14.27;6.25;;;;;;;1.12;62.25;96297.25;4987720;28;20504;-62
2021/01/14 01:16:41;;;;;;;16.52;7.80;;;;;;;0.85;64.39;96243.22;5005107;28;20172;-62
2021/01/14 01:19:06;;;;;;;11.82;4.65;;;;;;;0.39;63.18;96175.13;5005645;28;20069;-62
2021/01/14 01:21:32;;;;;;;9.10;4.22;;;;;;;1.15;62.58;96312.19;5004821;28;20511;-61
2021/01/14 01:23:57;;;;;;;14.90;7.00;;;;;;;0.46;62.99;96213.53;5005204;28;20033;-62
2021/01/14 01:26:23;;;;;;;21.60;7.88;;;;;;;1.10;62.87;96310.44;5004781;28;20121;-62
2021/01/14 01:28:48;;;;;;;11.50;5.07;;;;;;;1.12;61.73;96310.88;5005387;28;20025;-62
2021/01/14 01:31:14;;;;;;;14.73;5.72;;;;;;;1.07;61.10;96310.28;5004856;28;20523;-62
2021/01/14 01:33:41;;;;;;;10.70;4.80;;;;;;;1.04;62.74;96313.69;5005195;28;20029;-62
2021/01/14 01:36:08;;;;;;;13.20;5.80;;;;;;;0.88;64.39;96307.97;5003039;28;20073;-62
2021/01/14 01:38:33;;;;;;;33.00;12.07;;;;;;;0.56;65.01;96273.13;5004260;28;20069;-67
2021/01/14 01:41:01;;;;;;;33.25;12.70;;;;;;;0.24;67.36;96248.38;5004742;28;20315;-65
2021/01/14 01:43:27;;;;;;;33.50;15.02;;;;;;;0.78;68.80;96316.50;5004763;28;20038;-65
2021/01/14 01:45:53;;;;;;;43.53;16.17;;;;;;;0.85;67.72;96330.44;5004656;28;20088;-65
2021/01/14 01:48:21;;;;;;;28.17;9.75;;;;;;;0.33;67.12;96225.47;5004900;28;20029;-66
2021/01/14 01:50:50;;;;;;;24.60;10.63;;;;;;;0.15;66.56;96215.72;4986649;28;20048;-64
2021/01/14 01:53:16;;;;;;;21.77;6.75;;;;;;;0.62;67.40;96320.84;4986963;28;20412;-65
2021/01/14 01:55:45;;;;;;;14.90;6.25;;;;;;;0.62;68.12;96320.06;5004448;28;20069;-63
2021/01/14 01:58:13;;;;;;;19.00;7.13;;;;;;;0.49;70.96;96304.72;5003522;28;20309;-65
2021/01/14 02:00:38;;;;;;;17.17;8.27;;;;;;;-0.19;70.95;96223.97;5004386;28;20050;-65
2021/01/14 02:03:04;;;;;;;37.65;14.27;;;;;;;0.33;71.40;96317.25;4986805;28;20026;-65
2021/01/14 02:05:32;;;;;;;18.58;8.02;;;;;;;0.29;71.40;96311.63;4991464;28;20073;-65
2021/01/14 02:08:34;;;;;;;17.33;8.40;;;;;;;0.30;70.64;96307.78;5006666;28;20038;-66
2021/01/14 02:11:05;;;;;;;15.85;6.53;;;;;;;0.17;68.08;96311.50;5024197;28;20484;-66
2021/01/14 02:13:41;;;;;;;13.40;6.90;;;;;;;0.27;71.06;96313.09;4986747;28;20034;-64
2021/01/14 02:16:08;;;;;;;15.68;6.30;;;;;;;0.12;72.21;96328.00;4986322;28;20489;-65
2021/01/14 02:18:34;;;;;;;18.98;7.68;;;;;;;-0.58;73.01;96210.53;5021447;28;20104;-66
2021/01/14 02:21:03;;;;;;;21.27;8.10;;;;;;;0.10;72.70;96313.91;5044171;28;20124;-65
2021/01/14 02:23:34;;;;;;;14.60;6.90;;;;;;;0.06;73.44;96321.13;5044148;28;20040;-65
2021/01/14 02:26:14;;;;;;;18.65;7.60;;;;;;;0.06;71.99;96306.69;5043545;28;20045;-65
2021/01/14 02:28:42;;;;;;;14.60;5.10;;;;;;;-0.06;67.65;96301.88;5026334;28;20120;-67
2021/01/14 02:31:08;;;;;;;11.05;4.70;;;;;;;0.03;66.54;96301.91;5025628;28;20455;-66
2021/01/14 02:33:34;;;;;;;12.13;5.60;;;;;;;-0.27;67.33;96254.69;5045464;28;20035;-67
2021/01/14 02:35:59;;;;;;;19.02;6.60;;;;;;;0.01;66.39;96283.16;5047877;28;20037;-67
2021/01/14 02:38:25;;;;;;;17.33;6.97;;;;;;;-0.02;67.96;96283.81;5047822;28;20086;-66
2021/01/14 02:40:50;;;;;;;13.07;5.07;;;;;;;0.08;68.02;96316.13;5047496;28;20081;-66
2021/01/14 02:43:16;;;;;;;17.33;6.47;;;;;;;0.03;69.19;96313.59;5029951;28;20076;-66
2021/01/14 02:45:42;;;;;;;12.38;5.18;;;;;;;-0.08;68.90;96317.75;5047298;28;20064;-66
2021/01/14 02:48:11;;;;;;;12.27;5.25;;;;;;;-1.15;69.93;96184.56;5048093;28;20044;-67
2021/01/14 02:50:39;;;;;;;8.43;3.80;;;;;;;-0.10;69.44;96322.72;5047454;28;20119;-66
2021/01/14 02:53:06;;;;;;;21.08;8.27;;;;;;;-0.10;69.34;96320.00;5047718;28;20527;-65
2021/01/14 02:55:32;;;;;;;11.07;5.32;;;;;;;-0.15;70.17;96318.22;5028797;28;20041;-66
2021/01/14 02:57:58;;;;;;;18.80;8.20;;;;;;;-0.11;69.17;96312.94;5047674;28;20492;-66
2021/01/14 03:00:24;;;;;;;14.43;6.43;;;;;;;-0.18;69.16;96312.63;5047062;28;20106;-67
2021/01/14 03:02:49;;;;;;;9.63;4.22;;;;;;;-0.23;69.53;96318.22;5047152;28;20063;-67
2021/01/14 03:05:15;;;;;;;14.68;6.13;;;;;;;-0.25;70.15;96315.00;5047079;28;20036;-66
2021/01/14 03:07:40;;;;;;;13.82;5.60;;;;;;;-0.35;70.12;96313.41;5047481;28;20067;-66
2021/01/14 03:10:07;;;;;;;17.10;6.55;;;;;;;-0.40;70.58;96310.03;5047328;28;20033;-67
2021/01/14 03:12:32;;;;;;;26.45;8.48;;;;;;;-0.73;69.70;96273.53;5047384;28;20096;-66
2021/01/14 03:14:58;;;;;;;29.13;10.02;;;;;;;-1.22;69.98;96201.34;5047521;28;20040;-64
2021/01/14 03:17:23;;;;;;;16.40;6.93;;;;;;;-0.30;70.68;96332.28;5047151;28;20498;-66
2021/01/14 03:19:48;;;;;;;12.93;6.35;;;;;;;-0.29;69.81;96316.78;5029032;28;20036;-70
2021/01/14 03:22:14;;;;;;;17.55;7.63;;;;;;;-0.32;70.48;96322.84;5027053;28;20035;-68
2021/01/14 03:24:39;;;;;;;34.13;11.23;;;;;;;-0.26;70.94;96327.03;5027516;28;20107;-67
2021/01/14 03:27:06;;;;;;;33.28;10.38;;;;;;;-0.32;69.73;96333.75;5027160;28;20489;-67
2021/01/14 03:29:32;;;;;;;23.98;8.20;;;;;;;-2.24;71.47;96060.66;5016866;28;20248;-67
2021/01/14 03:32:02;;;;;;;19.45;6.55;;;;;;;-0.38;72.51;96351.34;4989329;28;20065;-67
2021/01/14 03:34:28;;;;;;;22.60;9.13;;;;;;;-0.44;73.01;96330.81;5007337;28;20249;-67
2021/01/14 03:36:56;;;;;;;34.72;13.35;;;;;;;-1.17;71.94;96209.31;5006794;28;20420;-67
2021/01/14 03:39:25;;;;;;;41.60;14.90;;;;;;;-0.91;72.62;96294.44;5007369;28;20041;-67
2021/01/14 03:41:52;;;;;;;61.88;23.23;;;;;;;-0.55;73.24;96318.66;4988775;28;20129;-67
2021/01/14 03:44:18;;;;;;;66.72;21.55;;;;;;;-0.57;73.43;96316.25;5006549;28;20052;-67
2021/01/14 03:46:48;;;;;;;46.00;16.50;;;;;;;-0.85;72.40;96273.31;4987806;28;20030;-68
2021/01/14 03:49:14;;;;;;;37.90;13.23;;;;;;;-0.72;71.90;96303.13;5007044;28;20135;-68
2021/01/14 03:51:40;;;;;;;40.75;13.10;;;;;;;-0.56;72.34;96330.66;5006528;28;20233;-68
2021/01/14 03:54:05;;;;;;;52.05;17.67;;;;;;;-0.57;72.09;96342.66;5006921;28;20038;-69
2021/01/14 03:56:41;;;;;;;47.92;14.68;;;;;;;-1.28;73.88;96246.03;5006071;28;20497;-69
2021/01/14 03:59:08;;;;;;;43.90;13.68;;;;;;;-1.45;73.18;96256.06;4985609;28;20442;-69
2021/01/14 04:01:33;;;;;;;39.42;13.30;;;;;;;-0.82;75.30;96348.84;4986983;28;20045;-69
2021/01/14 04:03:59;;;;;;;41.50;13.90;;;;;;;-2.73;76.06;96027.56;4985561;28;20851;-68
2021/01/14 04:06:36;;;;;;;33.90;13.10;;;;;;;-0.87;77.69;96327.22;4985054;28;20038;-68
2021/01/14 04:09:05;;;;;;;26.45;10.52;;;;;;;-0.98;76.57;96325.91;4987223;28;20044;-69
2021/01/14 04:11:32;;;;;;;14.70;6.32;;;;;;;-1.47;76.35;96256.34;4986540;28;20042;-68
2021/01/14 04:13:59;;;;;;;12.75;6.45;;;;;;;-0.98;77.28;96329.41;4987003;28;20036;-67
2021/01/14 04:16:25;;;;;;;14.93;7.13;;;;;;;-0.93;76.97;96344.78;4986732;28;20189;-68
2021/01/14 04:18:51;;;;;;;22.15;8.43;;;;;;;-0.96;78.04;96350.84;5003967;28;20128;-68
2021/01/14 04:21:17;;;;;;;37.58;12.95;;;;;;;-1.22;77.98;96279.31;5025620;28;20108;-68
2021/01/14 04:23:43;;;;;;;38.53;12.40;;;;;;;-1.09;78.62;96319.16;5026041;28;20544;-68
2021/01/14 04:26:09;;;;;;;35.88;12.90;;;;;;;-1.41;79.90;96270.59;5023620;28;20033;-67
2021/01/14 04:28:36;;;;;;;42.10;17.00;;;;;;;-1.19;80.14;96330.28;5025941;28;20036;-67
2021/01/14 04:31:02;;;;;;;43.95;17.67;;;;;;;-1.10;79.62;96333.84;5024326;28;20136;-68
2021/01/14 04:33:27;;;;;;;42.50;18.20;;;;;;;-1.10;80.98;96339.28;5024614;28;20025;-67
2021/01/14 04:35:55;;;;;;;31.88;14.13;;;;;;;-1.27;80.05;96328.34;5024087;28;20567;-68
2021/01/14 04:38:23;;;;;;;22.00;11.23;;;;;;;-1.42;81.35;96326.03;5026074;28;20484;-67
2021/01/14 04:41:00;;;;;;;22.88;9.13;;;;;;;-1.43;81.25;96318.97;5024280;28;20127;-69
2021/01/14 04:43:27;;;;;;;15.32;6.68;;;;;;;-2.28;80.77;96249.50;5024231;28;20041;-68
2021/01/14 04:46:11;;;;;;;18.13;7.00;;;;;;;-2.36;79.76;96204.16;5025293;28;20061;-69
2021/01/14 04:48:36;;;;;;;20.95;7.05;;;;;;;-1.55;79.67;96333.16;5026177;28;20037;-68
2021/01/14 04:51:12;;;;;;;19.15;6.95;;;;;;;-1.59;79.52;96324.81;5025327;28;20504;-69
2021/01/14 04:53:39;;;;;;;25.23;11.05;;;;;;;-2.20;79.73;96237.94;5025701;28;20044;-66
2021/01/14 04:56:07;;;;;;;26.50;10.40;;;;;;;-1.67;81.21;96325.56;5024481;28;20052;-69
2021/01/14 04:58:36;;;;;;;19.33;7.70;;;;;;;-1.73;80.66;96324.09;5025352;28;20051;-66
2021/01/14 05:01:10;;;;;;;24.00;7.75;;;;;;;-1.75;80.57;96326.31;5024958;28;20053;-65
2021/01/14 05:03:38;;;;;;;32.03;11.18;;;;;;;-1.63;80.37;96321.09;5023611;28;20516;-66
2021/01/14 05:06:05;;;;;;;25.10;11.05;;;;;;;-2.87;80.04;96127.09;5023450;28;20049;-68
2021/01/14 05:08:33;;;;;;;28.15;12.00;;;;;;;-1.71;80.33;96302.84;5040469;28;20288;-67
2021/01/14 05:10:59;;;;;;;32.40;12.00;;;;;;;-1.76;80.48;96305.72;5024713;28;20385;-68
2021/01/14 05:13:29;;;;;;;34.65;13.23;;;;;;;-1.73;80.31;96298.84;5023729;28;20080;-66
2021/01/14 05:15:55;;;;;;;78.38;32.42;;;;;;;-1.75;80.84;96301.88;5024863;28;20040;-68
2021/01/14 05:18:20;;;;;;;154.68;54.47;;;;;;;-1.72;80.56;96290.41;5020740;28;20477;-66
2021/01/14 05:20:45;;;;;;;128.77;48.92;;;;;;;-2.71;80.46;96142.69;5003353;28;20561;-66
2021/01/14 05:23:12;;;;;;;59.60;24.23;;;;;;;-1.80;80.47;96288.44;5005509;28;20099;-65
2021/01/14 05:25:44;;;;;;;43.38;17.60;;;;;;;-1.83;80.96;96294.50;5004703;28;20037;-66
2021/01/14 05:28:12;;;;;;;28.45;12.68;;;;;;;-2.07;81.11;96294.00;5005130;28;20034;-66
2021/01/14 05:30:39;;;;;;;28.17;11.90;;;;;;;-2.60;83.67;96219.91;5005008;28;20042;-65
2021/01/14 05:33:12;;;;;;;108.97;39.80;;;;;;;-1.96;82.16;96311.63;5003755;28;20503;-66
2021/01/14 05:35:47;;;;;;;111.30;42.00;;;;;;;-1.98;82.04;96313.88;5004770;28;20105;-66
2021/01/14 05:38:23;;;;;;;89.30;33.63;;;;;;;-2.01;82.42;96302.84;5003629;28;20100;-67
2021/01/14 05:43:46;;;;;;;90.60;38.15;;;;;;;-2.09;85.11;96292.72;5005235;28;20052;-67
2021/01/14 05:46:14;;;;;;;103.13;39.75;;;;;;;-1.91;85.77;96292.53;5003174;28;20837;-66
2021/01/14 05:48:40;;;;;;;99.75;41.55;;;;;;;-1.95;85.29;96296.97;5005109;28;20034;-67
2021/01/14 05:51:16;;;;;;;121.03;47.53;;;;;;;-1.95;86.12;96298.88;5004816;28;20048;-66
2021/01/14 05:54:29;;;;;;;92.97;35.05;;;;;;;-1.90;84.40;96304.97;5003429;28;20135;-67
2021/01/14 05:56:59;;;;;;;45.60;19.60;;;;;;;-1.94;83.72;96306.72;4961825;28;20102;-63
2021/01/14 05:59:32;;;;;;;46.45;19.77;;;;;;;-1.96;82.04;96311.63;4963069;28;20274;-60
2021/01/14 06:02:00;;;;;;;39.13;15.65;;;;;;;-1.99;82.29;96306.81;4983311;28;20125;-60
2021/01/14 06:04:27;;;;;;;33.88;13.57;;;;;;;-2.05;82.88;96335.19;5002880;28;20038;-63
2021/01/14 06:06:56;;;;;;;58.85;24.20;;;;;;;-2.77;84.95;96171.03;5000837;28;20511;-61
2021/01/14 06:09:22;;;;;;;48.42;21.17;;;;;;;-2.41;84.06;96234.09;5002339;28;20026;-64
2021/01/14 06:11:50;;;;;;;69.47;31.02;;;;;;;-5.09;83.61;95808.75;5002609;28;20032;-65
2021/01/14 06:14:30;;;;;;;32.95;16.23;;;;;;;-2.30;82.97;96278.84;5002053;28;20579;-63
2021/01/14 06:17:01;;;;;;;33.58;13.80;;;;;;;-2.40;83.48;96267.44;5001106;28;20500;-62
2021/01/14 06:19:28;;;;;;;35.45;15.82;;;;;;;-1.89;83.47;96317.44;5009711;28;20116;-62
2021/01/14 06:21:55;;;;;;;53.45;20.55;;;;;;;-2.89;82.56;96151.00;5003883;28;20037;-67
2021/01/14 06:24:38;;;;;;;71.63;27.10;;;;;;;-2.70;82.72;96165.16;5002374;28;20398;-65
2021/01/14 06:27:06;;;;;;;72.47;26.87;;;;;;;-1.69;82.37;96322.34;5003949;28;20113;-65
2021/01/14 06:29:34;;;;;;;60.88;25.85;;;;;;;-1.52;82.62;96323.56;5004571;28;20033;-67
2021/01/14 06:32:16;;;;;;;52.38;23.08;;;;;;;-1.56;80.26;96321.47;5004170;28;20026;-64
2021/01/14 06:34:51;;;;;;;73.90;30.45;;;;;;;-1.43;78.82;96352.38;5004117;28;20038;-62
2021/01/14 06:37:26;;;;;;;91.95;36.65;;;;;;;-1.40;79.90;96337.38;4990609;28;20073;-62
2021/01/14 06:39:54;;;;;;;62.90;26.90;;;;;;;-1.56;80.66;96305.19;5003843;28;20057;-66
2021/01/14 06:42:24;;;;;;;55.10;24.23;;;;;;;-1.47;78.83;96312.59;5003903;28;20034;-68
2021/01/14 06:45:01;;;;;;;48.35;20.58;;;;;;;-1.11;78.71;96353.97;5004105;28;20480;-60
2021/01/14 06:47:34;;;;;;;53.55;21.92;;;;;;;-0.92;78.37;96357.25;4996180;28;20070;-59
2021/01/14 06:50:14;;;;;;;69.53;29.70;;;;;;;-0.69;78.41;96353.31;4983162;28;20073;-65
2021/01/14 06:52:50;;;;;;;63.63;29.55;;;;;;;-0.45;77.97;96351.00;4998655;28;20503;-64
2021/01/14 06:55:18;;;;;;;65.90;26.10;;;;;;;-0.38;76.73;96345.91;5003215;28;20462;-60
2021/01/14 06:58:11;;;;;;;47.90;20.30;;;;;;;-0.04;73.62;96354.09;5003893;28;20042;-64
2021/01/14 07:00:47;;;;;;;43.50;18.47;;;;;;;-0.31;74.49;96351.66;5019270;28;20182;-61
2021/01/14 07:03:12;;;;;;;34.78;15.43;;;;;;;0.24;73.39;96352.63;5023492;28;20050;-62
2021/01/14 07:05:44;;;;;;;29.88;14.30;;;;;;;0.21;70.25;96304.28;5020104;28;20029;-61
2021/01/14 07:08:38;;;;;;;26.20;11.57;;;;;;;0.58;70.26;96341.72;5023501;28;20065;-62
2021/01/14 07:11:08;;;;;;;30.40;13.15;;;;;;;0.32;70.96;96297.38;5023490;28;20037;-64
2021/01/14 07:13:46;;;;;;;31.10;13.35;;;;;;;-0.92;69.30;96036.56;5023355;28;20056;-68
2021/01/14 07:16:16;;;;;;;34.38;14.60;;;;;;;1.26;67.06;96341.50;5004591;28;20279;-61
2021/01/14 07:18:44;;;;;;;70.63;34.50;;;;;;;1.36;68.56;96346.56;5004771;28;20056;-60
2021/01/14 07:21:37;;;;;;;64.60;33.00;;;;;;;1.58;67.90;96340.81;5026342;28;20397;-64
2021/01/14 07:24:09;;;;;;;61.15;29.63;;;;;;;1.58;67.78;96343.56;5026864;28;20053;-69
2021/01/14 07:26:38;;;;;;;68.50;34.38;;;;;;;1.32;68.64;96285.63;5025634;28;20037;-61
2021/01/14 07:29:04;;;;;;;65.40;32.53;;;;;;;1.80;68.72;96338.94;5027015;28;20068;-64
2021/01/14 07:31:31;;;;;;;63.47;30.33;;;;;;;1.69;67.09;96333.06;5026962;28;20041;-65
2021/01/14 07:33:57;;;;;;;63.65;31.55;;;;;;;0.93;66.79;96195.22;5027301;28;20040;-64
2021/01/14 07:36:26;;;;;;;48.35;25.02;;;;;;;2.18;64.13;96345.84;5026260;28;20041;-63
2021/01/14 07:38:54;;;;;;;45.13;23.08;;;;;;;2.24;63.29;96343.72;5026724;28;20087;-70
2021/01/14 07:41:20;;;;;;;50.60;21.50;;;;;;;2.27;61.79;96370.38;5007543;28;20468;-65
2021/01/14 07:43:45;;;;;;;140.73;41.25;;;;;;;1.95;61.66;96294.63;5025762;28;20041;-62
2021/01/14 07:46:13;;;;;;;104.05;33.08;;;;;;;2.11;62.93;96322.94;5026258;28;20044;-65
2021/01/14 07:48:40;;;;;;;125.35;40.67;;;;;;;2.26;62.39;96275.91;5008682;28;20505;-66
2021/01/14 07:51:05;;;;;;;106.15;34.72;;;;;;;2.68;60.38;96332.06;5008164;28;20523;-71
2021/01/14 07:53:31;;;;;;;109.63;40.22;;;;;;;2.73;61.20;96326.41;5008172;28;20053;-65
2021/01/14 07:56:23;;;;;;;130.98;46.78;;;;;;;2.95;61.77;96326.00;5025924;28;20041;-65
2021/01/14 07:58:52;;;;;;;58.53;24.48;;;;;;;2.94;61.61;96297.06;5020517;28;20084;-64
2021/01/14 08:01:17;;;;;;;28.35;14.38;;;;;;;3.00;60.99;96271.06;5007177;28;20092;-61
2021/01/14 08:03:44;;;;;;;21.50;11.88;;;;;;;2.96;57.48;96229.91;5026266;28;20068;-63
2021/01/14 08:06:26;;;;;;;24.35;13.02;;;;;;;3.49;58.86;96311.00;5025876;28;20041;-68
2021/01/14 08:09:00;;;;;;;18.30;9.77;;;;;;;2.51;56.63;96162.81;5026387;28;20246;-65
2021/01/14 08:11:26;;;;;;;;;;;;;;;3.71;55.16;96313.25;5008163;28;20048;-66
2021/01/14 08:14:03;;;;;;;38.38;19.25;;;;;;;3.11;55.58;96244.88;5025858;28;19917;-65
2021/01/14 08:16:42;;;;;;;18.10;9.30;;;;;;;3.77;53.86;96309.13;5025827;28;20041;-67
2021/01/14 08:19:32;;;;;;;22.77;9.88;;;;;;;3.81;56.64;96321.00;5007133;28;20064;-67
2021/01/14 08:21:58;;;;;;;19.50;7.85;;;;;;;3.90;58.02;96318.94;5025682;28;20097;-61
2021/01/14 08:24:47;;;;;;;20.08;7.75;;;;;;;4.09;56.95;96327.34;5023806;28;20604;-63
2021/01/14 08:27:30;;;;;;;15.95;6.78;;;;;;;3.88;53.38;96271.09;5006030;28;20504;-63
2021/01/14 08:30:07;;;;;;;13.85;7.07;;;;;;;4.18;54.25;96308.81;4988742;28;20073;-62
2021/01/14 08:32:48;;;;;;;9.48;4.20;;;;;;;4.13;52.30;96327.44;5005673;28;20095;-63
2021/01/14 08:35:19;;;;;;;19.77;7.20;;;;;;;4.15;53.32;96325.97;4987495;28;20038;-60
2021/01/14 08:37:47;;;;;;;17.48;8.60;;;;;;;4.15;53.02;96336.91;5005531;28;20038;-62
2021/01/14 08:40:16;;;;;;;32.00;15.73;;;;;;;3.78;54.13;96271.59;4987620;28;20113;-63
2021/01/14 08:42:44;;;;;;;15.88;8.15;;;;;;;3.96;53.90;96273.72;4987786;28;20394;-64
2021/01/14 08:45:20;;;;;;;17.33;9.55;;;;;;;4.15;50.93;96315.00;5002249;28;20516;-66
2021/01/14 08:47:51;;;;;;;21.73;8.68;;;;;;;4.26;51.77;96315.28;5025559;28;20033;-64
2021/01/14 08:50:52;;;;;;;21.38;10.27;;;;;;;4.21;54.01;96282.66;5024036;28;20113;-62
2021/01/14 08:53:17;;;;;;;8.73;4.38;;;;;;;4.48;49.39;96312.03;5013218;28;20072;-62
2021/01/14 08:55:43;;;;;;;18.42;10.13;;;;;;;4.39;51.18;96282.00;5025356;28;20037;-61
2021/01/14 08:58:08;;;;;;;15.38;8.85;;;;;;;4.53;50.75;96301.63;5024944;28;20065;-63
2021/01/14 09:00:37;;;;;;;14.80;8.90;;;;;;;4.65;51.89;96279.59;5006855;28;20058;-63
2021/01/14 09:03:04;;;;;;;8.60;4.93;;;;;;;4.99;48.28;96294.63;5007233;28;20546;-62
2021/01/14 09:05:30;;;;;;;9.77;4.25;;;;;;;4.95;47.44;96270.97;5005618;28;20167;-64
2021/01/14 09:08:07;;;;;;;9.80;4.72;;;;;;;5.08;46.13;96294.44;5018088;28;20258;-64
2021/01/14 09:10:39;;;;;;;5.63;3.55;;;;;;;4.89;43.31;96299.81;5024113;28;20136;-62
2021/01/14 09:13:13;;;;;;;17.60;7.32;;;;;;;4.97;44.05;96305.13;5024100;28;20140;-63
2021/01/14 09:15:38;;;;;;;11.05;5.28;;;;;;;4.68;43.89;96289.06;5005779;28;20064;-66
2021/01/14 09:18:04;;;;;;;7.65;3.90;;;;;;;4.54;44.94;96253.84;5024484;28;20535;-66
2021/01/14 09:20:30;;;;;;;10.60;3.80;;;;;;;4.98;44.62;96305.94;5024050;28;20123;-65
2021/01/14 09:23:42;;;;;;;9.27;4.28;;;;;;;5.11;45.58;96290.97;5024793;28;20034;-65
2021/01/14 09:26:13;;;;;;;7.38;3.53;;;;;;;5.41;43.35;96287.44;5020157;28;20049;-68
2021/01/14 09:28:40;;;;;;;5.05;3.00;;;;;;;4.65;41.60;96109.56;5006726;28;20562;-67
2021/01/14 09:31:11;;;;;;;7.82;3.60;;;;;;;5.12;42.02;96169.84;5024294;28;20033;-68
2021/01/14 09:33:38;;;;;;;26.65;10.75;;;;;;;5.47;43.43;96255.03;5024818;28;20037;-67
2021/01/14 09:36:13;;;;;;;9.05;4.35;;;;;;;5.27;43.02;96234.13;5006440;28;20056;-68
2021/01/14 09:38:41;;;;;;;8.60;3.60;;;;;;;5.68;42.02;96255.50;5024653;28;20052;-66
2021/01/14 09:41:07;;;;;;;6.45;3.28;;;;;;;5.50;42.26;96293.53;5004924;28;20037;-65
2021/01/14 09:43:38;;;;;;;18.20;7.00;;;;;;;5.83;40.47;96229.97;5022808;28;20091;-62
2021/01/14 09:46:04;;;;;;;12.13;4.78;;;;;;;5.71;41.08;96197.91;5024360;28;20102;-68
2021/01/14 09:48:32;;;;;;;7.45;2.78;;;;;;;5.68;39.64;96233.53;5024191;28;20500;-70
2021/01/14 09:50:58;;;;;;;6.47;2.33;;;;;;;5.23;40.20;96183.84;5024704;28;20041;-67
2021/01/14 09:53:24;;;;;;;3.78;2.30;;;;;;;5.39;41.03;96214.81;5025321;28;20460;-66
2021/01/14 09:55:49;;;;;;;4.47;2.25;;;;;;;3.90;42.03;96000.41;5024268;28;20045;-69
2021/01/14 09:58:21;;;;;;;6.03;2.30;;;;;;;4.63;41.50;96131.06;5024475;28;20056;-67
2021/01/14 10:00:50;;;;;;;3.42;2.08;;;;;;;4.78;42.16;96169.81;5023084;28;20053;-65
2021/01/14 10:03:19;;;;;;;4.30;2.30;;;;;;;4.53;42.15;96117.09;5023908;28;20044;-68
2021/01/14 10:05:49;;;;;;;4.80;2.58;;;;;;;4.95;42.76;96183.19;5021142;28;20137;-66
2021/01/14 10:08:20;;;;;;;8.63;2.42;;;;;;;4.69;42.24;96137.88;5005715;28;20037;-68
2021/01/14 10:10:45;;;;;;;6.50;3.00;;;;;;;4.48;42.50;96112.69;5005930;28;20029;-61
2021/01/14 10:13:15;;;;;;;5.00;2.38;;;;;;;4.86;41.69;96157.84;5024119;28;20064;-69
2021/01/14 10:15:41;;;;;;;4.38;2.00;;;;;;;4.21;42.05;96071.63;5023954;28;20508;-74
2021/01/14 10:18:07;;;;;;;3.63;2.25;;;;;;;4.99;41.91;96129.16;5022277;28;20088;-63
2021/01/14 10:20:33;;;;;;;3.97;2.05;;;;;;;4.89;41.73;96080.31;5025495;28;20511;-65
2021/01/14 10:22:59;;;;;;;3.88;2.33;;;;;;;4.36;41.79;96003.09;5023648;28;20029;-66
2021/01/14 10:25:24;;;;;;;7.53;2.72;;;;;;;5.29;41.88;96100.88;5022378;28;20045;-69
2021/01/14 10:28:00;;;;;;;4.93;2.22;;;;;;;5.24;40.57;96097.59;5023911;28;20039;-64
2021/01/14 10:30:27;;;;;;;4.45;2.33;;;;;;;4.92;42.02;96050.22;5005070;28;20042;-63
2021/01/14 10:33:01;;;;;;;15.45;7.68;;;;;;;4.49;41.46;95968.94;5023116;28;20040;-65
2021/01/14 10:35:28;;;;;;;7.00;3.60;;;;;;;5.01;43.34;96022.59;5022891;28;20098;-65
2021/01/14 10:38:23;;;;;;;7.13;2.67;;;;;;;4.60;44.12;96074.19;5023251;28;20103;-69
2021/01/14 10:40:56;;;;;;;4.75;2.85;;;;;;;3.53;43.29;95909.50;5004431;28;20049;-67
2021/01/14 10:43:30;;;;;;;7.68;2.72;;;;;;;4.52;43.56;96060.69;5004611;28;20021;-63
2021/01/14 10:45:55;;;;;;;8.77;3.42;;;;;;;4.80;44.37;96052.31;5005599;28;20148;-62
2021/01/14 10:48:22;;;;;;;6.60;3.25;;;;;;;4.75;41.67;95986.75;5023629;28;20381;-62
2021/01/14 10:50:55;;;;;;;4.78;2.90;;;;;;;4.59;42.16;95973.88;5004700;28;20088;-65
2021/01/14 10:53:26;;;;;;;4.85;2.67;;;;;;;5.31;42.20;96027.16;5023050;28;20512;-66
2021/01/14 10:56:01;;;;;;;6.28;2.70;;;;;;;5.46;40.58;96017.25;5026620;28;20052;-65
2021/01/14 10:58:26;;;;;;;7.22;2.90;;;;;;;5.03;39.89;95992.81;5027562;28;20520;-66
2021/01/14 11:00:52;;;;;;;7.05;2.65;;;;;;;5.53;40.71;95998.19;5025885;28;20081;-64
2021/01/14 11:03:22;;;;;;;5.45;3.40;;;;;;;5.69;41.54;95985.91;5027239;28;20116;-67
2021/01/14 11:05:57;;;;;;;11.70;6.95;;;;;;;6.04;41.17;95983.03;5008530;28;20500;-68
2021/01/14 11:08:37;;;;;;;20.13;8.20;;;;;;;6.15;42.28;95978.50;5009437;28;20033;-71
2021/01/14 11:11:15;;;;;;;18.77;8.05;;;;;;;5.82;42.19;95928.88;5027610;28;20045;-68
2021/01/14 11:13:51;;;;;;;38.80;21.63;;;;;;;5.97;43.11;95903.22;5009721;28;20548;-67
2021/01/14 11:16:25;;;;;;;11.05;5.00;;;;;;;5.51;39.82;95849.44;5026870;28;20030;-64
2021/01/14 11:18:52;;;;;;;7.25;4.32;;;;;;;4.01;41.22;95629.72;5008872;28;20045;-73
2021/01/14 11:21:26;;;;;;;4.57;2.35;;;;;;;5.55;40.71;95993.09;5019315;28;20030;-66
2021/01/14 11:23:51;;;;;;;3.35;2.05;;;;;;;5.43;40.49;95954.81;5006608;28;20034;-63
2021/01/14 11:26:21;;;;;;;5.32;2.40;;;;;;;5.56;40.61;95972.72;5024395;28;20420;-70
2021/01/14 11:28:48;;;;;;;10.77;6.38;;;;;;;5.76;41.62;95990.75;5025597;28;20030;-68
2021/01/14 11:31:15;;;;;;;6.20;2.90;;;;;;;5.41;40.35;95957.94;5025663;28;20045;-70
2021/01/14 11:33:44;;;;;;;4.90;2.40;;;;;;;5.72;40.60;96009.13;5026574;28;20873;-72
2021/01/14 11:36:10;;;;;;;27.67;12.35;;;;;;;6.04;40.78;95996.78;5024116;28;20045;-64
2021/01/14 11:38:35;;;;;;;6.88;3.25;;;;;;;5.61;40.50;95898.28;5025891;28;20033;-71
2021/01/14 11:41:01;;;;;;;5.50;3.03;;;;;;;5.64;39.95;95878.31;5026419;28;20497;-64
2021/01/14 11:43:27;;;;;;;5.80;2.42;;;;;;;6.14;39.51;95946.69;5025658;28;20033;-72
2021/01/14 11:45:53;;;;;;;4.28;2.45;;;;;;;5.95;39.32;95963.25;5007349;28;20034;-66